Enduro des Balmes > Results

29 April 2018 @ Beaumes de Venise (84)
Enduro • Moto Club Balméen • LIGUE DE PROVENCE

231 participants

 

Results

  1. SCRATCH ELITE
  2. SCRATCH LIGUE 1
  3. SCRATCH LIGUE 2
  4. SCRATCH LIGUE 3

SCRATCH LIGUE 1

Place Number Participant Rg/sc Pénalité Temps Ecart Club Ligue ES1 ES2 ES3 ES4
1 318 WENDEROTH Victor Ligue 1 E3 1 19:26.59 Moto Club Alpin Ligue de Provence 4:25.39 5:22.95 4:21.87 5:16.38
2 226 ROLLAND Loic Ligue 1 E2 1 19:27.87 1.28 Moto Club Saint Marcellois Ligue Auvergne Rhône Alpes 4:23.48 5:24.37 4:18.06 5:21.96
3 559 HUBER Eric Ligue 1 Vétéran 1 19:40.93 14.34 TEAM RAPH À TOC Ligue de Provence 4:28.73 5:28.57 4:24.03 5:19.60
4 550 UGOLINI Xavier Ligue 1 Vétéran 2 19:44.14 17.55 MOTO CLUB BALMÉEN LIGUE DE PROVENCE 4:30.95 5:25.07 4:25.80 5:22.32
5 585 CANTEL Alban Ligue 1 Vétéran 3 19:44.43 17.84 Moto Club Balméen Ligue de Provence 4:34.08 5:27.10 4:21.40 5:21.85
6 552 LAFFONT Eric Ligue 1 Vétéran 4 19:45.02 18.43 MOTO CLUB ALPIN Ligue de Provence 4:32.25 5:27.91 4:25.09 5:19.77
7 302 MARTINEZ Gregory Ligue 1 E3 2 19:47.46 20.87 MOTO CLUB PERNOIS Ligue de Provence 4:28.99 5:29.68 4:22.32 5:26.47
8 211 SASSOLAS Nicolas Ligue 1 E2 2 19:48.46 21.87 Fireball Enduro Racing Ligue Auvergne Rhône Alpes 4:23.44 5:42.57 4:23.71 5:18.74
9 320 BRES Rocco Ligue 1 E3 3 19:49.00 22.41 Moto Club Pernois Ligue de Provence 4:31.28 5:28.49 4:26.14 5:23.09
10 209 CHASTAN Damien Ligue 1 E2 3 19:50.30 23.71 MOTO CLUB DE L'ENCLAVE SECTION TOUT TERRAIN Ligue de Provence 4:27.40 5:24.66 4:35.38 5:22.86
11 566 POCCHIOLA Olivier Ligue 1 Vétéran 5 19:51.64 25.05 MOTO CLUB ALPIN Ligue de Provence 4:28.04 5:43.34 4:19.29 5:20.97
12 312 BAQUE Julien Ligue 1 E3 4 19:53.16 26.57 Moto Club de Saint Thibery Ligue Occitanie 4:30.13 5:33.30 4:21.77 5:27.96
13 608 ESTELLE Christophe Ligue 1 Vétéran II 1 20:07.26 40.67 CLUB DUOS SPORT TT 4:37.15 5:34.83 4:26.84 5:28.44
14 551 CAMPANA Marc Ligue 1 Vétéran 6 20:10.82 44.23 C.E.T SPORT DE CANNES Ligue de Provence 4:31.15 5:31.42 4:32.87 5:35.38
15 313 KLEINDIENST Damien Ligue 1 E3 5 20:11.20 44.61 Racing Moto Club Corsica Ligue de Corse 4:37.37 5:35.54 4:28.75 5:29.54
16 103 ICHARD Loic Ligue 1 E1 1 20:12.79 46.20 MOTO CLUB BALMÉEN Ligue de Provence 4:28.12 5:47.81 4:34.35 5:22.51
17 101 MAZA Robin Ligue 1 E1 2 20:13.54 46.95 MOTO CLUB BALMÉEN Ligue de Provence 4:39.83 5:39.28 4:26.41 5:28.02
18 203 PASQUIER Laurent Ligue 1 E2 4 20:16.05 49.46 Moto Club Saint Romanais Ligue de Provence 4:36.24 5:35.57 4:31.35 5:32.89
19 113 DJEBARI Dorian Ligue 1 E1 3 20:17.95 51.36 Moto Club Toulonnais Ligue de Provence 4:38.68 5:36.81 4:32.28 5:30.18
20 118 DOLCI Mathias Ligue 1 E1 4 20:18.16 51.57 BRIANÇON MOTO SPORT Ligue de Provence 4:31.10 5:46.15 4:28.91 5:32.00
21 314 RICHAUD Jordan Ligue 1 E3 6 20:19.70 53.11 U.S.C.A.S.A MOTO RABELLINO jean marc Ligue de Provence 4:35.53 5:36.37 4:32.86 5:34.94
22 232 REYMOND Raphael Ligue 1 E2 5 20:19.81 53.22 Moto Club Ventabren Ligue de Provence 4:38.55 5:31.21 4:28.29 5:41.76
23 596 ROUX Jean Emmanuel Ligue 1 Vétéran 7 20:20.62 54.03 BUZZ RACING Ligue de Provence 4:38.91 5:37.71 4:32.53 5:31.47
24 223 DEWEIRDT Michael Ligue 1 E2 6 20:21.92 55.33 Moto Club Dignois Ligue de Provence 4:36.95 5:38.67 4:30.92 5:35.38
25 112 PONTHET Olivier Ligue 1 E1 5 20:22.05 55.46 Moto Club du Var Ligue de Provence 4:37.27 5:41.03 4:31.00 5:32.75
26 227 ABEL Olivier Ligue 1 E2 7 20:22.29 55.70 Rive Sud Moto Club Ligue de Corse 4:51.71 5:30.56 4:30.63 5:29.39
27 244 BUREL Vincent Ligue 1 E2 8 20:22.71 56.12 Moto Club du Var Ligue de Provence 4:40.02 5:38.87 4:30.11 5:33.71
28 598 ROMERO Luc Ligue 1 Vétéran 8 20:27.80 1:01.21 SÉLECT'EUR CLUB Ligue de Provence 4:43.38 5:37.07 4:32.74 5:34.61
29 300 GUYON Eric Ligue 1 E3 7 20:31.70 1:05.11 MOTO CLUB SAINT MARCELLOIS LIGUE AUVERGNE RHÔNE ALPES 4:40.23 5:35.85 4:38.20 5:37.42
30 321 ROBERT Eddy Ligue 1 E3 8 20:35.74 1:09.15 BRIANÇON MOTO SPORT Ligue de Provence 4:31.01 5:43.80 4:32.15 5:48.78
31 234 REYNAUD Yannick Ligue 1 E2 9 20:36.82 1:10.23 Moto Club Mazanais Ligue de Provence 4:41.38 5:44.32 4:32.35 5:38.77
32 220 RECORDIER Nicolas Ligue 1 E2 10 20:39.80 1:13.21 Motocross Entraiguois Ligue de Provence 4:45.49 5:47.99 4:30.57 5:35.75
33 214 VOUT Gregory Ligue 1 E2 11 20:40.60 1:14.01 Buzz Racing Ligue de Provence 4:43.73 5:41.11 4:35.73 5:40.03
34 102 GRANDORDY Lilian Ligue 1 E1 6 20:42.85 1:16.26 MOTO CLUB DE GOULT Ligue de Provence 4:35.10 5:46.30 4:43.98 5:37.47
35 602 ALLAVENA Lionel Ligue 1 Vétéran 9 20:46.99 1:20.40 MC CÔTE D'AZUR - A.S.B.T.P. Ligue de Provence 4:46.41 5:46.37 4:37.07 5:37.14
36 574 BAUDET Christophe Ligue 1 Vétéran II 2 20:48.62 1:22.03 RS TEAM 06 Ligue de Provence 4:46.49 5:47.58 4:34.19 5:40.36
37 306 WLODARCZAK Alexandre Ligue 1 E3 9 20:49.61 1:23.02 Moto Club du Var Ligue de Provence 4:36.60 5:47.66 4:49.44 5:35.91
38 200 RAYNAUD Mathieu Ligue 1 E2 12 20:51.38 1:24.79 Enduro Spirit Ligue de Provence 4:42.32 5:41.01 4:37.69 5:50.36
39 107 PEREZ Fabien Ligue 1 E1 7 20:52.44 1:25.85 MOTO CLUB DE SAINT THIBERY LIGUE OCCITANIE 4:42.40 5:38.77 4:36.49 5:54.78
40 591 MERLE Pascal Ligue 1 Vétéran II 3 20:53.59 1:27.00 MOTO CLUB PUY EN VELAY LIGUE AUVERGNE RHÔNE ALPES 4:47.46 5:49.94 4:37.41 5:38.78
41 100 SANCHEZ Tony Ligue 1 E1 8 20:54.21 1:27.62 U.S.C.A.S.A MOTO RABELLINO JEAN MARC Ligue de Provence 4:40.64 6:03.36 4:33.99 5:36.22
42 599 JOHANN Norbert Ligue 1 Vétéran 10 20:54.79 1:28.20 MOTO CLUB DU VAR Ligue de Provence 4:46.96 5:45.43 4:41.30 5:41.10
43 119 ARNAUDO Geoffrey Ligue 1 E1 9 20:56.72 1:30.13 Plan D'Orgon Sport Moto Ligue de Provence 4:43.70 5:46.61 4:41.74 5:44.67
44 115 GARCIN Alexis Ligue 1 E1 10 20:57.03 1:30.44 MOTO CLUB ALPIN Ligue de Provence 4:41.98 5:32.67 4:31.75 6:10.63
45 229 VOEGTLIN Clement Ligue 1 E2 13 21:05.38 1:38.79 Moto Club du Var Ligue de Provence 4:47.14 5:51.33 4:35.78 5:51.13
46 323 GARCIA Nicolas Ligue 1 E3 10 21:13.16 1:46.57 Enduro Spirit Ligue de Provence 4:50.94 5:50.71 4:45.47 5:46.04
47 563 GOMOT Guillaume Ligue 1 Vétéran 11 21:13.89 1:47.30 BUZZ RACING Ligue de Provence 4:56.97 5:48.39 4:37.31 5:51.22
48 556 GAUCHERAND Laurent Ligue 1 Vétéran 12 21:24.78 1:58.19 TONIC MOTO DES COMBES GRONDEES LIGUE BOURGOGNE FRANCHE COMTÉ 4:55.93 5:57.96 4:42.71 5:48.18
49 230 ALAZARD Fabien Ligue 1 E2 14 21:25.19 1:58.60 Moto Club Saint Romanais Ligue de Provence 4:44.10 5:52.88 4:44.61 6:03.60
50 604 MIRETE Cyril Ligue 1 Vétéran 13 21:25.55 1:58.96 RS TEAM 06 Ligue de Provence 4:48.55 6:24.39 4:34.73 5:37.88
51 233 VILLEMUS Ludovic Ligue 1 E2 15 21:25.66 1:59.07 Moto Club des Aigles Aptésiens Ligue de Provence 5:00.87 5:51.07 4:41.14 5:52.58
52 322 GIULIANO Jerome Ligue 1 E3 11 21:26.75 2:00.16 RS Team 06 Ligue de Provence 4:54.58 5:54.57 4:48.57 5:49.03
53 580 BRUNAUD Stephane Ligue 1 Vétéran 14 21:27.32 2:00.73 SPORT MOTO TEAM LOISIR VERTS RHONE VALLOIRE LIGUE AUVERGNE RHÔNE ALPES 4:55.38 5:53.51 4:48.84 5:49.59
54 219 GABERT Jean Frederic Ligue 1 E2 16 21:29.03 2:02.44 Moto Club Pernois Ligue de Provence 4:36.42 5:53.01 5:10.60 5:49.00
55 329 LARTIGUE Antony Ligue 1 E3 12 21:30.18 2:03.59 Moto Club les Pitchouns Ligue de Provence 4:52.14 6:00.03 4:49.98 5:48.03
56 114 VOEGTLIN Florian Ligue 1 E1 11 21:34.98 2:08.39 Moto Club De Cogolin Ligue de Provence 4:59.40 5:54.78 4:48.04 5:52.76
57 307 SABATIER Benjamin Ligue 1 E3 13 21:39.05 2:12.46 Moto Club Toulonnais Ligue de Provence 4:55.82 6:00.47 4:44.59 5:58.17
58 106 BERTOCCHI Mathis Ligue 1 E1 12 21:40.66 2:14.07 GRENOBLE ENDURO CLUB LIGUE AUVERGNE RHÔNE ALPES 4:50.94 5:53.18 4:52.53 6:04.01
59 607 FEDORKO Michel Ligue 1 Vétéran II 4 21:41.22 2:14.63 BRIANÇON MOTO SPORT Ligue de Provence 4:55.74 6:02.78 4:46.62 5:56.08
60 554 DEGIOVANNI Jean Luc Ligue 1 Vétéran II 5 21:44.54 2:17.95 MOTO CLUB DIGNOIS Ligue de Provence 5:05.47 5:59.65 4:51.19 5:48.23
61 245 DAUDE Florent Ligue 1 E2 17 21:44.75 2:18.16 Briançon Moto Sport Ligue de Provence 4:56.76 6:00.15 4:51.26 5:56.58
62 577 HUMBERT Olivier Ligue 1 Vétéran II 6 21:45.54 2:18.95 ORANGE MECANIC TEAM Ligue de Provence 4:51.99 5:53.60 5:08.96 5:50.99
63 576 BELMON Stephane Ligue 1 Vétéran II 7 21:46.79 2:20.20 MC CÔTE D'AZUR - A.S.B.T.P. Ligue de Provence 4:57.80 6:04.60 4:47.48 5:56.91
64 570 CAZZULO Marc Ligue 1 Vétéran II 8 21:47.16 2:20.57 BUZZ RACING Ligue de Provence 4:54.89 6:06.87 4:50.08 5:55.32
65 597 PERRITAZ Guillaume Ligue 1 Vétéran 15 21:48.31 2:21.72 Buzz Racing Ligue de Provence 5:06.53 5:55.02 4:51.86 5:54.90
66 111 TOURNISSOUX Jeremy Ligue 1 E1 13 21:51.15 2:24.56 Moto Club du Var Ligue de Provence 4:58.23 5:56.77 4:57.89 5:58.26
67 593 VASQUEZ DEL CORRO Thierry Ligue 1 Vétéran II 9 21:52.12 2:25.53 MOTO CLUB PRIVADOIS LIGUE AUVERGNE RHÔNE ALPES 5:00.85 6:00.69 4:51.66 5:58.92
68 309 CONRAD Gregory Ligue 1 E3 14 21:53.14 2:26.55 Orange Mecanic Team Ligue de Provence 4:53.88 6:00.10 4:54.96 6:04.20
69 201 CARDONA Geoffrey Ligue 1 E2 18 21:53.95 2:27.36 Moto Club du Var Ligue de Provence 4:57.05 5:59.79 4:48.43 6:08.68
70 590 RICHARD Thierry Ligue 1 Vétéran 16 21:54.46 2:27.87 MOTO CLUB SAINT ROMANAIS Ligue de Provence 4:58.78 6:10.17 4:50.48 5:55.03
71 242 VAN DER SLIKKE Jannis Ligue 1 E2 19 21:58.23 2:31.64 Moto Club Toulonnais Ligue de Provence 4:58.28 6:04.23 4:51.29 6:04.43
72 311 BAQUE Mathis Ligue 1 E3 15 22:01.83 2:35.24 Moto Club de Saint Thibery Ligue Occitanie 4:59.46 6:06.77 4:53.45 6:02.15
73 210 GAMET Jordan Ligue 1 E2 20 22:02.51 2:35.92 MOTO CLUB WELCOME TT Ligue Occitanie 5:04.32 5:59.43 4:50.48 6:08.28
74 600 SAVOYE Jean Marc Ligue 1 Vétéran II 10 22:03.58 2:36.99 PLAN D'ORGON SPORT MOTO Ligue de Provence 4:55.42 6:21.36 4:53.29 5:53.51
75 603 MORO Jean Michel Ligue 1 Vétéran II 11 22:06.82 2:40.23 MC Côte d'Azur - A.S.B.T.P. Ligue de Provence 5:01.79 6:06.28 4:55.71 6:03.04
76 240 CANONNE Arthur Ligue 1 E2 21 22:08.48 2:41.89 Moto Club Alpin Ligue de Provence 4:28.46 7:38.76 4:32.08 5:29.18
77 317 DELFINO Remy Ligue 1 E3 16 22:10.90 2:44.31 Moto Club Dignois Ligue de Provence 4:59.31 6:07.79 4:55.21 6:08.59
78 231 NICOLAS Julien Ligue 1 E2 22 22:16.73 2:50.14 MOTO CLUB DES AIGLES APTÉSIENS Ligue de Provence 5:05.63 6:13.50 4:55.03 6:02.57
79 308 RAVERA Olivier Ligue 1 E3 17 22:19.05 2:52.46 RS Team 06 Ligue de Provence 5:10.77 6:11.83 4:54.82 6:01.63
80 218 BRUNEL Cedric Ligue 1 E2 23 22:19.87 2:53.28 AS SP Moto Corbere les Cabanes Ligue Occitanie 5:03.34 6:05.52 4:57.57 6:13.44
81 586 RICHAUD Luc Ligue 1 Vétéran II 12 22:21.98 2:55.39 U.S.C.A.S.A MOTO RABELLINO JEAN MARC Ligue de Provence 4:59.26 6:19.75 4:52.72 6:10.25
82 315 BUONOMO Romain Ligue 1 E3 18 22:23.35 2:56.76 Moto Club du Var Ligue de Provence 4:56.62 6:06.42 4:55.34 6:24.97
83 303 TRAMIER Franck Ligue 1 E3 19 22:24.88 2:58.29 Moto Club Balméen Ligue de Provence 5:14.90 6:07.91 4:55.91 6:06.16
84 568 ROLANT Arnaud Ligue 1 Vétéran 17 22:25.55 2:58.96 RS TEAM 06 LIGUE DE PROVENCE 5:11.44 6:14.85 4:55.15 6:04.11
85 581 BARNIER Sebastien Ligue 1 Vétéran 18 22:27.67 3:01.08 DIOIS SPORT T.T Ligue Auvergne Rhône Alpes 5:18.44 6:04.45 5:00.78 6:04.00
86 579 COTTE Christophe Ligue 1 Vétéran II 13 22:32.49 3:05.90 BUZZ RACING Ligue de Provence 5:12.20 6:13.63 4:59.28 6:07.38
87 319 PERINI Hugo Ligue 1 E3 20 22:32.70 3:06.11 Moto Club Pernois Ligue de Provence 5:10.76 6:11.45 4:56.65 6:13.84
88 109 GELLY Baptiste Ligue 1 E1 14 22:33.70 3:07.11 ENDURO SPIRIT Ligue de Provence 5:09.15 6:17.25 5:01.04 6:06.26
89 204 TRILLES Jerome Ligue 1 E2 24 22:34.06 3:07.47 Buzz Racing Ligue de Provence 5:07.17 6:13.57 5:00.62 6:12.70
90 239 LOOPUYT Jean-Baptiste Ligue 1 E2 25 22:34.35 3:07.76 Moto Club du Plateau Ardechois Ligue Auvergne Rhône Alpes 5:12.71 6:12.54 4:56.86 6:12.24
91 310 GERVAIS Sylvain Ligue 1 E3 21 22:36.18 3:09.59 Moto Club Saint Romanais Ligue de Provence 5:06.04 6:11.76 5:03.02 6:15.36
92 572 MEUNIER Bernard Ligue 1 Vétéran II 14 22:37.19 3:10.60 MOTO CLUB PUY EN VELAY LIGUE AUVERGNE RHÔNE ALPES 5:09.43 6:16.37 5:03.50 6:07.89
93 215 SAURET Florent Ligue 1 E2 26 22:39.69 3:13.10 Moto Club du Var Ligue de Provence 5:17.07 6:08.28 5:00.84 6:13.50
94 594 FRITZ Emmanuel Ligue 1 Vétéran 19 22:42.20 3:15.61 BUZZ RACING LIGUE DE PROVENCE 5:14.41 5:44.06 5:13.28 6:30.45
95 595 LAUMONIER Jerome Ligue 1 Vétéran II 15 22:44.48 3:17.89 MC CÔTE D'AZUR - A.S.B.T.P. Ligue de Provence 5:06.85 6:15.92 5:05.32 6:16.39
96 206 GUILLOT Bastien Ligue 1 E2 27 22:46.22 3:19.63 Moto Club Saint Romanais Ligue de Provence 5:02.84 6:16.69 4:55.65 6:31.04
97 606 PETIT Eric Ligue 1 Vétéran II 16 22:46.42 3:19.83 MOTO CLUB BALMÉEN Ligue de Provence 5:14.79 6:14.93 5:07.74 6:08.96
98 316 BERTRAND Thomas Ligue 1 E3 22 22:47.59 3:21.00 Moto Club du Plateau Ardechois Ligue Auvergne Rhône Alpes 5:08.96 6:24.67 5:10.93 6:03.03
99 589 DEGUILHEM Laurent Ligue 1 Vétéran 20 22:54.49 3:27.90 MOTO CLUB DU VAR Ligue de Provence 5:13.92 6:23.98 5:02.98 6:13.61
100 117 PLATEAU Bastien Ligue 1 E1 15 22:57.98 3:31.39 Moto Club Domazan Ligue de Provence 5:20.73 6:15.90 5:08.40 6:12.95
101 235 VILOTTA Alexandre Ligue 1 E2 28 22:59.29 3:32.70 Moto Club du Var Ligue de Provence 5:08.60 6:26.85 5:10.61 6:13.23
102 562 DA SILVA FRANCISCO Tony Ligue 1 Vétéran 21 23:02.96 3:36.37 U.S.C.A.S.A MOTO RABELLINO JEAN MARC Ligue de Provence 5:21.16 6:21.92 5:03.18 6:16.70
103 582 ARROUDJ Gilles Ligue 1 Vétéran II 17 23:09.50 3:42.91 MOTO CLUB BALMÉEN LIGUE DE PROVENCE 5:06.77 6:08.66 5:51.41 6:02.66
104 238 BOYER Jean Yann Ligue 1 E2 29 23:09.57 3:42.98 RS Team 06 Ligue de Provence 5:12.10 6:18.08 5:12.07 6:27.32
105 540 DEGIOVANNI Andrea Ligue 1 E1 16 23:09.70 3:43.11 MOTO CLUB DIGNOIS LIGUE DE PROVENCE 5:14.65 6:16.21 5:11.53 6:27.31
106 241 FAUCQUEUR Francois Ligue 1 E2 30 23:14.28 3:47.69 Briançon Moto Sport Ligue de Provence 5:22.93 6:17.72 5:13.21 6:20.42
107 213 PAGAN Denis Ligue 1 E2 31 23:15.07 3:48.48 ORANGE MECANIC TEAM Ligue de Provence 5:21.98 6:26.50 5:14.76 6:11.83
108 236 KERGOURLAY Anthony Ligue 1 E2 32 23:19.84 3:53.25 Moto Club du Var Ligue de Provence 5:19.11 6:21.14 5:16.92 6:22.67
109 567 THURING Sebastien Ligue 1 Vétéran 22 23:22.05 3:55.46 CROZET MOTOCROSS LIGUE AUVERGNE RHÔNE ALPES 5:35.56 6:30.38 5:03.54 6:12.57
110 305 MARIN-CUDRAZ Jeremy Ligue 1 E3 23 23:26.89 4:00.30 MOTO CLUB WELCOME TT LIGUE OCCITANIE 5:15.43 6:23.32 5:11.79 6:36.35
111 564 BELLIER Olivier Ligue 1 Vétéran 23 23:28.19 4:01.60 MOTO CLUB SAINT ROMANAIS Ligue de Provence 5:13.32 6:33.19 5:04.73 6:36.95
112 110 GARCIA Martin Ligue 1 E1 17 23:45.23 4:18.64 MENTON SPORTS LOISIRS Ligue de Provence 5:09.37 6:21.79 5:02.14 7:11.93
113 584 VICENTE Pascal Ligue 1 Vétéran II 18 23:45.35 4:18.76 Moto Club Balméen Ligue de Provence 5:19.80 6:27.58 5:42.99 6:14.98
114 587 CHAIX Yannick Ligue 1 Vétéran 24 23:45.70 4:19.11 MOTO CLUB DES GRANGES GONTARDES LIGUE AUVERGNE RHÔNE ALPES 5:17.00 6:24.97 5:12.19 6:51.54
115 575 DARD Emmanuel Ligue 1 Vétéran II 19 23:46.28 4:19.69 MOTO CLUB DU VAR Ligue de Provence 5:38.78 6:30.98 5:19.12 6:17.40
116 583 NICOLAS Laurent Ligue 1 Vétéran II 20 23:47.08 4:20.49 Moto Club Balméen Ligue de Provence 5:25.68 6:33.44 5:20.03 6:27.93
117 601 MENARDO Jean Pierre Ligue 1 Vétéran II 21 24:00.26 4:33.67 MOTO CLUB DU VAR Ligue de Provence 5:45.48 6:31.50 5:20.42 6:22.86
118 578 HOFFER Jean-Bernard Ligue 1 Vétéran II 22 24:06.49 4:39.90 C.E.T SPORT DE CANNES Ligue de Provence 5:42.88 6:39.50 5:20.69 6:23.42
119 557 BARON Gael Ligue 1 Vétéran 25 24:07.31 4:40.72 PLAN D'ORGON SPORT MOTO LIGUE DE PROVENCE 5:22.94 6:42.56 5:15.51 6:46.30
120 228 LEMOINE Nicolas Ligue 1 E2 33 24:23.33 4:56.74 Moto Club La Voulte Ligue Auvergne Rhône Alpes 5:14.82 6:55.89 5:25.56 6:47.06
121 116 FAVAREL Julien Ligue 1 E1 18 24:46.48 5:19.89 Moto Club Tobesport Ligue des Pays de la Loire 5:57.82 6:42.83 5:19.25 6:46.58
122 573 ROY Cyprien Ligue 1 Vétéran II 23 24:48.74 5:22.15 MOTO CLUB DU VAR LIGUE DE PROVENCE 5:48.30 7:10.95 5:18.13 6:31.36
123 202 BONNET Gilles Ligue 1 E2 34 24:53.35 5:26.76 Moto Club du circuit Paul Ricard Ligue de Provence 5:40.73 7:15.22 5:24.00 6:33.40
124 592 GARCIA Thierry Ligue 1 Vétéran II 24 25:11.99 5:45.40 MENTON SPORTS LOISIRS LIGUE DE PROVENCE 6:05.75 6:20.04 5:32.32 7:13.88
125 222 CORNIOLO Cedric Ligue 1 E2 35 25:16.48 5:49.89 RS TEAM 06 LIGUE DE PROVENCE 5:37.27 6:54.07 5:40.22 7:04.92
126 553 VAN DER VELDEN Francis Ligue 1 Vétéran 26 1:00.0 25:57.34 6:30.75 TERRAIN DE L'AMITIÉ Ligue de Provence 5:45.24 6:52.81 5:34.06 6:45.23
127 605 COUSTAURY Philippe Ligue 1 Vétéran II 25 19:00.0 49:25.72 29:59.13 PLAN D'ORGON SPORT MOTO Ligue de Provence 6:52.18 7:31.78 8:22.20 7:39.56
104 VAN DER VELDEN Wout Ligue 1 E1 ... TERRAIN DE L'AMITIÉ Ligue de Provence 5:50.67
205 CHAUVIN Brice Ligue 1 E2 ... Moto Club Privadois Ligue Auvergne Rhône Alpes 4:23.91 5:18.94
561 FRICAUX Philippe Ligue 1 Vétéran ... TERRAIN DE L'AMITIÉ Ligue de Provence 5:17.47 6:23.83
108 BERGALA Antoine Ligue 1 E1 ... MOTO CLUB DU VAR LIGUE DE PROVENCE 5:35.63 6:36.73
243 BIANUCCI Max Ligue 1 E2 ... MC Chateauneuf les Martigues Ligue de Provence 15:28.44 8:28.04
560 BERNARD Ludovic Ligue 1 Vétéran ... MOTO CLUB SAINT ROMANAIS Ligue de Provence 5:09.33 6:27.75
565 DURIEZ Franck Ligue 1 Vétéran ... MOTO CLUB DU CIRCUIT PAUL RICARD Ligue de Provence 6:13.39 7:30.70 5:43.02
216 RIBIERE Laurent Ligue 1 E2 ... ENDURO SPIRIT Ligue de Provence 5:37.89 6:51.27 5:35.78
225 BRIAND Jean-Bernard Ligue 1 E2 ... Buzz Racing Ligue de Provence 7:15.33 9:31.77
571 MARIN-CUDRAZ Stephane Ligue 1 Vétéran II ... MOTO CLUB DU CIRCUIT PAUL RICARD Ligue de Provence 6:37.43 8:14.70
217 BUSCAJA Jean Michel Ligue 1 E2 ... C.E.T Sport de Cannes Ligue de Provence 5:10.16 6:49.16 5:27.28
569 BOURNAT Didier Ligue 1 Vétéran II ... C.E.T SPORT DE CANNES Ligue de Provence 6:55.68 8:44.33
224 ALMANSA Audric Ligue 1 E2 ... Moto Club Mazanais Ligue de Provence 5:46.99 7:54.76
588 SIMON Matthieu Ligue 1 Vétéran ... MOTO CLUB DU BEAUSSET LIGUE DE PROVENCE 7:34.47

- DNF : Do Not Finish (non arrivé)
- DNS : Do Not Start (non parti)